Meath Environmental Platform

Observations for Trim Patrick St

Time AQI Temp °C Hum % Pres Pa CO μg/m³ H₂S μg/m³ NO μg/m³ NO₂ μg/m³ O₃ μg/m³ SO₂ μg/m³ PM1 μg/m³ PM2.5 μg/m³ PM10 μg/m³
Friday 7 August 2026
04:12 2 12.2 81 38,460 0.36 2.23 3.68 16.34 21.1 0 2 5.18 5.69
04:11 2 12.2 81 38,460 0.37 3.03 3.64 36.04 16.54 0 2 5.18 5.7
04:10 2 12.2 81 38,460 0.37 0.86 3.67 16.57 22.52 0 2 4.48 4.93
04:09 2 12.2 81 38,460 0.36 1.12 3.69 16.33 29.06 0 2 5.18 5.7
04:08 2 12.2 81 38,460 0.36 1.48 3.71 17.8 20.26 0 2 5.18 5.7
04:07 2 12.1 80 38,460 0.36 2.26 3.79 23.3 17.12 0 3.71 6.59 7.25
04:06 2 12.1 80 38,460 0.36 2.15 3.76 20.84 22.51 0 2 4.49 4.94
04:05 2 12.1 81 38,460 0.36 2.33 3.75 15.69 24.56 0 2 5.88 6.47
04:04 2 12.1 80 38,460 0.36 3.52 3.8 32.21 17.99 0 2 5.19 5.71
04:03 2 12.1 80 38,460 0.36 1.66 3.77 17.08 26.8 0 2 5.2 5.72
04:02 2 12.1 81 38,460 0.34 1.53 3.72 18.15 18.3 0 2 5.18 5.7
04:01 2 12 80 38,460 0.35 3.13 3.81 19.08 24.73 0 2 4.49 4.94
04:00 2 12 80 38,460 0.35 4.16 3.74 21.22 33.71 0 2 5.19 5.71
03:59 2 12 80 38,460 0.35 2.87 3.65 22.29 20.1 0 2 5.19 5.71
03:58 2 12 80 38,460 0.35 3.34 3.69 29.25 19.41 0 2.86 5.19 5.71
03:57 2 12 80 38,460 0.34 4.68 3.58 21.55 36.46 0 2 5.9 6.49
03:56 2 12 80 38,460 0.35 2.85 3.66 27.96 23.29 0 2 4.5 4.95
03:55 2 11.9 80 38,460 0.35 2.25 3.73 20.32 22.43 0 2 5.19 5.71
03:54 2 11.9 80 38,460 0.35 1.06 3.65 16.82 23.43 0 2 5.89 6.48
03:53 2 11.9 80 38,460 0.34 2.25 3.59 25.06 14.36 0 2.86 5.89 6.48